Time;durP1;ratioP1;P1;durP2;ratioP2;P2;SDS_P1;SDS_P2;PMS_P1;PMS_P2;Temp;Humidity;BMP_temperature;BMP_pressure;BME280_temperature;BME280_humidity;BME280_pressure;Samples;Min_cycle;Max_cycle;Signal;HPM_P1;HPM_P2
2022/05/09 00:00:59;;;;;;;;;19.00;15.50;;;;;18.21;51.42;102207.03;5069732;28;45497;-51
2022/05/09 00:03:25;;;;;;;;;15.50;15.00;;;;;18.18;52.20;102207.25;5069119;28;45577;-56
2022/05/09 00:05:50;;;;;;;;;17.50;15.25;;;;;18.17;51.92;102212.69;5069536;28;46502;-48
2022/05/09 00:08:16;;;;;;;;;15.25;14.75;;;;;18.13;51.99;102210.22;5070639;27;45413;-50
2022/05/09 00:10:41;;;;;;;;;18.00;15.75;;;;;18.07;51.94;102209.78;5068256;27;45466;-49
2022/05/09 00:13:06;;;;;;;;;15.75;15.50;;;;;18.03;52.07;102213.63;5069019;28;45511;-48
2022/05/09 00:15:32;;;;;;;;;17.25;13.00;;;;;18.00;52.22;102219.16;5068608;28;45888;-49
2022/05/09 00:17:58;;;;;;;;;14.00;13.00;;;;;17.91;51.95;102217.94;5062192;28;45506;-51
2022/05/09 00:20:23;;;;;;;;;14.00;13.50;;;;;17.86;52.14;102214.75;5069698;28;45595;-52
2022/05/09 00:22:52;;;;;;;;;6.50;4.50;;;;;17.85;51.96;102213.03;5069700;28;45731;-54
2022/05/09 00:25:20;;;;;;;;;14.00;13.00;;;;;17.79;52.02;102222.31;5069677;28;45389;-52
2022/05/09 00:27:45;;;;;;;;;13.50;13.00;;;;;17.77;51.94;102205.56;5069945;27;45425;-49
2022/05/09 00:30:12;;;;;;;;;14.50;14.00;;;;;17.71;52.06;102203.31;5065680;28;45616;-52
2022/05/09 00:32:37;;;;;;;;;14.00;13.00;;;;;17.67;51.99;102211.56;5068741;28;45471;-51
2022/05/09 00:35:04;;;;;;;;;14.75;13.50;;;;;17.61;52.03;102210.13;5068359;28;45992;-50
2022/05/09 00:37:29;;;;;;;;;12.00;10.00;;;;;17.57;52.05;102205.97;5062078;28;45658;-51
2022/05/09 00:39:55;;;;;;;;;11.75;9.00;;;;;17.50;51.79;102202.84;5059885;28;45361;-49
2022/05/09 00:42:21;;;;;;;;;16.00;9.75;;;;;17.45;52.14;102204.94;5059953;28;45325;-52
2022/05/09 00:44:47;;;;;;;;;14.50;11.50;;;;;17.42;52.06;102199.84;5060268;28;45377;-52
2022/05/09 00:47:13;;;;;;;;;10.25;10.25;;;;;17.39;51.97;102205.38;5059665;28;45573;-50
2022/05/09 00:49:49;;;;;;;;;10.00;9.50;;;;;17.37;51.86;102204.59;5059826;28;45498;-50
2022/05/09 00:52:48;;;;;;;;;10.25;10.25;;;;;17.35;51.87;102206.50;5059229;28;45597;-48
2022/05/09 00:55:20;;;;;;;;;10.50;8.50;;;;;17.36;51.61;102202.03;5051032;28;45508;-48
2022/05/09 00:57:55;;;;;;;;;9.00;8.50;;;;;17.34;51.56;102209.28;5046237;28;45431;-48
2022/05/09 01:00:24;;;;;;;;;10.75;10.00;;;;;17.32;51.84;102200.53;5059666;28;45450;-51
2022/05/09 01:02:59;;;;;;;;;9.00;8.50;;;;;17.29;51.58;102206.91;5059776;28;45727;-53
2022/05/09 01:05:27;;;;;;;;;12.00;9.75;;;;;17.26;51.88;102199.97;5046676;28;45535;-52
2022/05/09 01:07:54;;;;;;;;;11.50;8.50;;;;;17.28;51.90;102205.19;5059417;28;45365;-52
2022/05/09 01:10:24;;;;;;;;;8.00;7.00;;;;;17.28;51.71;102198.06;5059559;28;45462;-47
2022/05/09 01:12:51;;;;;;;;;9.00;8.50;;;;;17.25;51.16;102200.91;5059782;28;45548;-49
2022/05/09 01:15:17;;;;;;;;;8.25;7.00;;;;;17.24;51.22;102201.03;5059533;28;46096;-49
2022/05/09 01:17:48;;;;;;;;;6.75;6.00;;;;;17.22;51.14;102197.59;5059202;28;45589;-50
2022/05/09 01:20:14;;;;;;;;;8.25;6.75;;;;;17.20;50.93;102194.16;5059509;28;45739;-50
2022/05/09 01:22:41;;;;;;;;;8.00;7.00;;;;;17.18;50.99;102196.09;5059657;28;45722;-50
2022/05/09 01:25:16;;;;;;;;;10.25;7.25;;;;;17.17;51.02;102197.03;5059029;28;46283;-50
2022/05/09 01:27:44;;;;;;;;;8.50;7.75;;;;;17.17;51.20;102202.38;5059304;28;45377;-53
2022/05/09 01:30:19;;;;;;;;;10.50;8.50;;;;;17.18;50.99;102201.41;5059337;28;45398;-52
2022/05/09 01:32:56;;;;;;;;;13.00;9.50;;;;;17.14;51.24;102203.44;5059325;28;45820;-53
2022/05/09 01:35:31;;;;;;;;;8.75;8.00;;;;;17.10;51.41;102203.72;5059390;28;45433;-53
2022/05/09 01:38:26;;;;;;;;;10.00;7.00;;;;;17.03;51.66;102198.75;5058757;28;45683;-52
2022/05/09 01:40:52;;;;;;;;;9.75;7.75;;;;;17.04;51.74;102199.63;5057464;28;45525;-50
2022/05/09 01:43:52;;;;;;;;;8.00;8.00;;;;;17.01;51.60;102198.00;5059484;28;45422;-49
2022/05/09 01:46:24;;;;;;;;;11.00;8.25;;;;;17.01;51.67;102198.00;5046875;28;45555;-49
2022/05/09 01:51:37;;;;;;;;;8.75;8.00;;;;;16.96;51.59;102194.78;5046424;28;45407;-52
2022/05/09 01:54:02;;;;;;;;;5.00;5.00;;;;;16.94;51.74;102195.84;5058627;28;45623;-52
2022/05/09 01:56:31;;;;;;;;;7.50;5.50;;;;;16.91;51.71;102188.06;5071453;28;46672;-54
2022/05/09 01:58:58;;;;;;;;;13.50;9.00;;;;;16.88;51.61;102197.06;5069989;28;45472;-54
2022/05/09 02:01:28;;;;;;;;;7.25;7.00;;;;;16.82;52.08;102189.44;5068871;28;45453;-52
2022/05/09 02:03:54;;;;;;;;;9.75;7.75;;;;;16.80;51.56;102196.69;5061291;28;45390;-52
2022/05/09 02:06:20;;;;;;;;;7.00;6.50;;;;;16.74;51.84;102192.59;5061654;28;45541;-53
2022/05/09 02:08:46;;;;;;;;;8.75;6.75;;;;;16.71;51.91;102190.13;5059912;28;45399;-51
2022/05/09 02:11:13;;;;;;;;;7.25;5.50;;;;;16.71;51.92;102197.25;5060213;28;45648;-53
2022/05/09 02:13:39;;;;;;;;;11.25;7.00;;;;;16.65;51.83;102193.13;5060378;28;45627;-53
2022/05/09 02:16:05;;;;;;;;;9.00;7.25;;;;;16.63;51.99;102191.53;5060056;28;45249;-53
2022/05/09 02:18:35;;;;;;;;;9.25;7.00;;;;;16.58;52.03;102190.94;5062769;28;45282;-55
2022/05/09 02:21:01;;;;;;;;;6.25;6.25;;;;;16.54;52.25;102190.28;5063572;28;45397;-54
2022/05/09 02:23:26;;;;;;;;;10.75;9.25;;;;;16.54;52.34;102192.09;5064079;28;45306;-52
2022/05/09 02:25:53;;;;;;;;;8.50;7.00;;;;;16.52;52.50;102186.03;5063366;28;45335;-53
2022/05/09 02:28:21;;;;;;;;;10.00;8.50;;;;;16.53;52.53;102188.59;5063569;28;45399;-51
2022/05/09 02:30:47;;;;;;;;;8.50;8.50;;;;;16.54;52.50;102187.63;5063397;28;45333;-54
2022/05/09 02:33:13;;;;;;;;;9.50;7.50;;;;;16.51;52.56;102189.59;5063591;28;45180;-51
2022/05/09 02:35:41;;;;;;;;;10.75;6.75;;;;;16.51;52.59;102187.81;5062929;28;45443;-54
2022/05/09 02:38:07;;;;;;;;;9.75;9.00;;;;;16.52;52.66;102189.53;5063121;28;45374;-54
2022/05/09 02:40:33;;;;;;;;;;;;;;;16.53;52.06;102182.41;5065849;28;45372;-54
2022/05/09 02:42:59;;;;;;;;;9.25;9.25;;;;;16.51;52.48;102185.16;5063433;28;45160;-52
2022/05/09 02:45:26;;;;;;;;;9.00;7.00;;;;;16.45;52.38;102182.88;5064352;28;45315;-53
2022/05/09 02:47:52;;;;;;;;;10.50;6.50;;;;;16.40;52.59;102188.47;5063215;28;45296;-50
2022/05/09 02:50:21;;;;;;;;;10.25;7.75;;;;;16.35;53.00;102182.59;5061722;28;45447;-51
2022/05/09 02:52:51;;;;;;;;;11.00;9.00;;;;;16.33;53.19;102188.94;5064720;28;45142;-54
2022/05/09 02:55:18;;;;;;;;;11.00;8.00;;;;;16.29;52.90;102185.59;5063035;28;47080;-50
2022/05/09 02:57:44;;;;;;;;;15.25;10.25;;;;;16.28;52.96;102177.72;5062791;28;45501;-53
2022/05/09 03:00:15;;;;;;;;;11.00;9.25;;;;;16.27;53.03;102179.50;5063305;28;45288;-50
2022/05/09 03:02:40;;;;;;;;;13.00;11.25;;;;;16.24;53.26;102177.03;5063087;28;45443;-50
2022/05/09 03:05:07;;;;;;;;;8.50;8.50;;;;;16.22;53.36;102178.94;5060201;28;45327;-50
2022/05/09 03:07:33;;;;;;;;;12.25;10.00;;;;;16.20;53.12;102172.88;5062449;28;45706;-53
2022/05/09 03:09:59;;;;;;;;;14.25;9.00;;;;;16.18;53.21;102175.59;5062323;28;45450;-50
2022/05/09 03:12:25;;;;;;;;;14.50;10.00;;;;;16.15;53.49;102173.13;5063105;28;45378;-50
2022/05/09 03:14:51;;;;;;;;;12.25;8.00;;;;;16.11;53.32;102174.25;5061472;28;45435;-50
2022/05/09 03:17:17;;;;;;;;;9.00;8.50;;;;;16.08;53.56;102169.13;5062583;28;45415;-52
2022/05/09 03:19:43;;;;;;;;;12.00;10.00;;;;;16.10;53.50;102161.91;5062801;28;45327;-53
2022/05/09 03:22:09;;;;;;;;;11.50;10.00;;;;;16.12;53.45;102170.66;5062491;28;45251;-54
2022/05/09 03:24:35;;;;;;;;;11.50;9.00;;;;;16.07;53.33;102167.41;5062655;28;45422;-50
2022/05/09 03:27:03;;;;;;;;;8.75;8.75;;;;;16.02;53.61;102174.81;5062637;28;45466;-52
2022/05/09 03:29:29;;;;;;;;;10.00;9.00;;;;;15.97;53.48;102174.25;5061633;28;45343;-51
2022/05/09 03:31:54;;;;;;;;;11.25;6.50;;;;;15.91;53.75;102172.78;5062678;28;45421;-53
2022/05/09 03:34:20;;;;;;;;;11.00;10.50;;;;;15.89;53.92;102168.53;5062262;28;46152;-50
2022/05/09 03:36:46;;;;;;;;;11.00;10.00;;;;;15.87;54.00;102173.91;5062554;28;45310;-53
2022/05/09 03:39:12;;;;;;;;;11.25;8.75;;;;;15.88;54.06;102167.66;5062065;28;45322;-51
2022/05/09 03:41:38;;;;;;;;;13.75;10.50;;;;;15.86;54.14;102172.19;5062403;28;46458;-53
2022/05/09 03:44:04;;;;;;;;;12.00;12.00;;;;;15.81;54.35;102166.31;5065147;28;45248;-50
2022/05/09 03:46:29;;;;;;;;;10.50;9.25;;;;;15.82;54.43;102175.13;5062773;28;45228;-52
2022/05/09 03:48:55;;;;;;;;;18.00;10.50;;;;;15.78;54.76;102174.44;5062491;28;45321;-51
2022/05/09 03:51:20;;;;;;;;;14.00;11.00;;;;;15.72;54.57;102174.81;5060828;28;45427;-52
2022/05/09 03:53:46;;;;;;;;;13.25;8.25;;;;;15.69;54.78;102174.97;5060692;28;46002;-49
2022/05/09 03:56:12;;;;;;;;;13.75;10.25;;;;;15.67;54.61;102174.22;5059389;28;45161;-51
2022/05/09 03:58:38;;;;;;;;;15.75;11.00;;;;;15.65;54.58;102172.59;5051495;28;45465;-51
2022/05/09 04:01:04;;;;;;;;;9.75;9.75;;;;;15.62;54.64;102171.81;5057849;28;45439;-52
2022/05/09 04:03:30;;;;;;;;;13.25;13.25;;;;;15.63;54.82;102172.66;5060860;28;45314;-54
2022/05/09 04:05:57;;;;;;;;;10.75;10.50;;;;;15.65;54.85;102167.28;5059209;28;45388;-52
2022/05/09 04:08:23;;;;;;;;;16.75;10.00;;;;;15.65;54.83;102168.16;5060780;28;45379;-53
2022/05/09 04:10:52;;;;;;;;;17.75;14.25;;;;;15.65;54.78;102172.59;5059056;28;45552;-50
2022/05/09 04:13:18;;;;;;;;;19.75;15.75;;;;;15.62;54.60;102168.31;5053729;28;45333;-51
2022/05/09 04:18:36;;;;;;;;;20.25;13.00;;;;;15.60;54.67;102170.16;5059313;28;45217;-50
2022/05/09 04:21:02;;;;;;;;;19.25;13.50;;;;;15.59;54.97;102171.97;5042533;28;45430;-53
2022/05/09 04:23:28;;;;;;;;;14.00;12.00;;;;;15.61;54.68;102171.91;5040706;28;46364;-52
2022/05/09 04:25:53;;;;;;;;;15.25;14.75;;;;;15.59;54.84;102171.97;5060553;28;45351;-54
2022/05/09 04:28:22;;;;;;;;;11.50;10.75;;;;;15.56;54.70;102169.50;5059048;28;45363;-50
2022/05/09 04:30:48;;;;;;;;;16.75;12.75;;;;;15.56;55.01;102172.16;5053243;28;45403;-54
2022/05/09 04:33:14;;;;;;;;;15.25;12.00;;;;;15.55;54.87;102167.75;5056218;28;45292;-54
2022/05/09 04:35:42;;;;;;;;;17.25;13.75;;;;;15.51;54.85;102168.03;5047039;28;45337;-53
2022/05/09 04:38:13;;;;;;;;;15.50;13.00;;;;;15.50;55.06;102175.16;5040893;28;45225;-52
2022/05/09 04:40:39;;;;;;;;;18.50;15.25;;;;;15.49;54.91;102169.94;5040812;28;45308;-53
2022/05/09 04:43:04;;;;;;;;;19.25;15.75;;;;;15.48;55.03;102165.53;5040799;28;45429;-49
2022/05/09 04:45:31;;;;;;;;;15.25;11.75;;;;;15.49;55.21;102175.25;5041299;28;45417;-54
2022/05/09 04:47:57;;;;;;;;;20.00;14.00;;;;;15.50;55.15;102169.00;5041303;28;45250;-51
2022/05/09 04:50:25;;;;;;;;;14.00;12.75;;;;;15.46;54.85;102178.91;5041045;28;45241;-52
2022/05/09 04:52:51;;;;;;;;;17.75;12.25;;;;;15.44;55.18;102172.84;5046453;28;45620;-55
2022/05/09 04:55:17;;;;;;;;;16.00;15.50;;;;;15.47;55.05;102170.00;5061462;28;45401;-53
2022/05/09 04:57:43;;;;;;;;;16.75;13.75;;;;;15.47;55.32;102180.63;5061317;28;45390;-51
2022/05/09 05:00:12;;;;;;;;;14.25;13.50;;;;;15.49;55.33;102177.91;5061255;28;45240;-54
2022/05/09 05:02:37;;;;;;;;;21.00;10.25;;;;;15.50;55.41;102169.84;5061249;28;45433;-54
2022/05/09 05:05:05;;;;;;;;;18.50;13.75;;;;;15.51;55.30;102168.91;5060474;28;45366;-52
2022/05/09 05:07:31;;;;;;;;;17.50;14.00;;;;;15.53;55.17;102169.66;5061301;28;45344;-51
2022/05/09 05:09:57;;;;;;;;;17.25;15.00;;;;;15.59;55.46;102177.28;5060635;28;45604;-52
2022/05/09 05:12:23;;;;;;;;;18.00;15.00;;;;;15.62;55.78;102176.28;5061159;28;45356;-50
2022/05/09 05:14:48;;;;;;;;;16.50;14.75;;;;;15.63;55.27;102168.22;5060664;28;45425;-50
2022/05/09 05:17:14;;;;;;;;;17.25;15.50;;;;;15.61;55.20;102172.75;5064972;28;45266;-54
2022/05/09 05:19:44;;;;;;;;;19.50;15.00;;;;;15.61;55.61;102174.56;5060739;28;45621;-53
2022/05/09 05:22:15;;;;;;;;;19.50;15.00;;;;;15.62;55.64;102174.47;5060862;28;45425;-52
2022/05/09 05:24:44;;;;;;;;;18.50;14.00;;;;;15.65;55.58;102180.56;5057978;28;45364;-49
2022/05/09 05:27:11;;;;;;;;;19.50;13.00;;;;;15.65;55.80;102181.44;5060824;28;45303;-52
2022/05/09 05:29:37;;;;;;;;;17.75;12.75;;;;;15.67;55.48;102182.19;5060679;28;45482;-52
2022/05/09 05:32:19;;;;;;;;;19.25;12.50;;;;;15.71;55.80;102185.50;5061546;28;45458;-57
2022/05/09 05:34:45;;;;;;;;;17.75;13.75;;;;;15.73;55.74;102186.31;5050442;28;45292;-55
2022/05/09 05:37:10;;;;;;;;;11.25;11.25;;;;;15.73;55.62;102173.88;5068912;28;45369;-54
2022/05/09 05:39:41;;;;;;;;;19.75;16.25;;;;;15.78;55.33;102179.75;5060376;28;45338;-54
2022/05/09 05:42:07;;;;;;;;;16.25;13.25;;;;;15.83;55.18;102188.31;5063077;28;46318;-55
2022/05/09 05:44:34;;;;;;;;;17.00;14.50;;;;;15.88;54.98;102185.41;5067342;28;45321;-54
2022/05/09 05:47:04;;;;;;;;;15.25;12.00;;;;;15.93;54.92;102185.13;5068947;28;45868;-55
2022/05/09 05:49:31;;;;;;;;;18.75;14.00;;;;;15.95;55.03;102180.56;5066021;28;45367;-54
2022/05/09 05:52:02;;;;;;;;;18.75;14.75;;;;;15.97;54.91;102176.91;5070973;28;45444;-53
2022/05/09 05:54:28;;;;;;;;;16.00;14.50;;;;;16.04;54.79;102180.06;5073766;28;45333;-50
2022/05/09 05:56:54;;;;;;;;;22.75;17.00;;;;;16.10;54.82;102180.50;5072543;28;45228;-51
2022/05/09 05:59:19;;;;;;;;;16.25;16.25;;;;;16.14;54.68;102189.19;5069787;28;45235;-52
2022/05/09 06:01:45;;;;;;;;;19.50;13.00;;;;;16.18;54.68;102188.03;5074075;28;45492;-50
2022/05/09 06:04:10;;;;;;;;;20.00;15.75;;;;;16.27;54.55;102178.66;5073107;28;45434;-49
2022/05/09 06:06:36;;;;;;;;;18.50;15.25;;;;;16.38;54.49;102186.84;5077586;28;45477;-48
2022/05/09 06:09:01;;;;;;;;;12.75;12.75;;;;;16.48;54.05;102193.31;5064921;28;45480;-49
2022/05/09 06:11:27;;;;;;;;;21.00;14.50;;;;;16.55;54.31;102191.13;5063640;28;45927;-52
2022/05/09 06:13:52;;;;;;;;;17.00;13.50;;;;;16.62;53.94;102205.78;5063588;28;45480;-50
2022/05/09 06:16:18;;;;;;;;;22.50;17.50;;;;;16.69;53.81;102199.16;5064032;28;45414;-51
2022/05/09 06:18:45;;;;;;;;;20.25;17.00;;;;;16.79;53.78;102194.13;5063709;28;45516;-51
2022/05/09 06:21:10;;;;;;;;;19.25;15.75;;;;;16.88;53.23;102201.53;5062899;28;45418;-53
2022/05/09 06:23:36;;;;;;;;;16.25;15.00;;;;;16.95;53.24;102202.88;5061830;28;45484;-50
2022/05/09 06:26:01;;;;;;;;;17.75;14.25;;;;;17.03;53.37;102192.59;5062468;28;45296;-52
2022/05/09 06:28:27;;;;;;;;;16.50;15.25;;;;;17.12;52.82;102193.81;5062547;28;45510;-53
2022/05/09 06:30:53;;;;;;;;;18.00;16.50;;;;;17.19;52.95;102201.31;5063277;28;45355;-49
2022/05/09 06:33:23;;;;;;;;;15.75;15.00;;;;;17.26;52.21;102201.78;5062410;28;45409;-53
2022/05/09 06:35:50;;;;;;;;;19.75;13.50;;;;;17.31;52.49;102197.03;5055187;28;45369;-52
2022/05/09 06:38:17;;;;;;;;;18.00;13.50;;;;;17.38;52.05;102206.31;5063014;28;45344;-52
2022/05/09 06:40:43;;;;;;;;;17.50;13.00;;;;;17.38;52.15;102194.78;5063010;28;45347;-53
2022/05/09 06:43:09;;;;;;;;;16.50;14.75;;;;;17.44;51.73;102207.72;5061527;28;45460;-53
2022/05/09 06:45:35;;;;;;;;;18.75;15.50;;;;;17.50;51.61;102205.53;5063333;28;45308;-53
2022/05/09 06:48:01;;;;;;;;;19.00;14.25;;;;;17.55;51.49;102211.41;5063265;28;45540;-51
2022/05/09 06:50:31;;;;;;;;;15.75;13.75;;;;;17.59;51.34;102214.72;5059056;28;46067;-49
2022/05/09 06:52:58;;;;;;;;;20.50;16.25;;;;;17.61;51.29;102214.59;5071036;28;45413;-49
2022/05/09 06:55:23;;;;;;;;;20.50;15.50;;;;;17.62;51.03;102221.69;5070704;28;45508;-50
2022/05/09 06:57:52;;;;;;;;;18.75;12.00;;;;;17.65;51.08;102213.47;5073181;28;45425;-51
2022/05/09 07:00:23;;;;;;;;;14.75;14.75;;;;;17.69;50.99;102215.81;5071010;27;47586;-49
2022/05/09 07:02:49;;;;;;;;;18.00;12.25;;;;;17.72;51.05;102220.16;5071462;28;45222;-49
2022/05/09 07:05:17;;;;;;;;;22.50;16.75;;;;;17.75;51.28;102211.94;5071681;28;45220;-51
2022/05/09 07:07:44;;;;;;;;;22.00;16.25;;;;;17.79;51.20;102216.97;5073559;28;45397;-51
2022/05/09 07:10:11;;;;;;;;;20.50;12.75;;;;;17.80;51.28;102221.34;5070975;27;45363;-50
2022/05/09 07:12:50;;;;;;;;;16.25;15.00;;;;;17.83;51.32;102221.13;5072172;28;45535;-51
2022/05/09 07:15:18;;;;;;;;;16.25;15.00;;;;;17.84;51.51;102212.16;5068837;28;45337;-51
2022/05/09 07:17:45;;;;;;;;;24.00;15.25;;;;;17.87;51.35;102224.47;5075032;28;45385;-51
2022/05/09 07:20:12;;;;;;;;;20.75;14.25;;;;;17.89;51.26;102219.88;5068833;28;45436;-49
2022/05/09 07:22:37;;;;;;;;;18.50;14.75;;;;;17.92;51.04;102209.00;5072161;27;45508;-50
2022/05/09 07:25:04;;;;;;;;;21.00;16.00;;;;;17.93;51.05;102210.72;5070743;28;45561;-50
2022/05/09 07:27:30;;;;;;;;;17.25;15.75;;;;;17.97;50.71;102214.88;5073078;28;45587;-51
2022/05/09 07:29:56;;;;;;;;;22.25;17.75;;;;;17.98;50.75;102216.59;5071368;28;45480;-48
2022/05/09 07:32:23;;;;;;;;;16.50;13.75;;;;;18.02;51.09;102219.94;5071737;28;45339;-51
2022/05/09 07:34:51;;;;;;;;;17.50;15.50;;;;;18.02;50.79;102215.44;5067961;28;45346;-50
2022/05/09 07:37:18;;;;;;;;;21.50;16.00;;;;;18.02;50.97;102217.25;5072344;28;45321;-48
2022/05/09 07:39:44;;;;;;;;;20.25;15.00;;;;;18.04;51.20;102223.34;5071510;28;46137;-51
2022/05/09 07:42:11;;;;;;;;;19.00;17.00;;;;;18.04;51.09;102218.84;5071323;28;45476;-52
2022/05/09 07:44:36;;;;;;;;;29.25;18.75;;;;;18.08;51.48;102219.50;5071057;28;45339;-49
2022/05/09 07:47:02;;;;;;;;;9.75;5.25;;;;;18.11;51.25;102212.16;5070730;28;45557;-50
2022/05/09 07:49:28;;;;;;;;;19.00;16.75;;;;;18.17;50.91;102210.88;5067765;28;45707;-51
2022/05/09 07:51:54;;;;;;;;;21.25;17.00;;;;;18.23;51.17;102209.59;5068089;28;45534;-49
2022/05/09 07:54:20;;;;;;;;;24.00;16.75;;;;;18.29;51.06;102218.03;5069348;28;45442;-55
2022/05/09 07:56:46;;;;;;;;;19.50;14.75;;;;;18.33;51.05;102203.56;5070749;28;45436;-54
2022/05/09 07:59:12;;;;;;;;;20.50;16.50;;;;;18.38;50.84;102204.06;5071274;28;46180;-49
2022/05/09 08:01:39;;;;;;;;;24.75;19.25;;;;;18.40;50.97;102193.28;5070698;28;45383;-53
2022/05/09 08:04:05;;;;;;;;;21.00;16.25;;;;;18.44;51.08;102202.81;5067288;28;45377;-52
2022/05/09 08:06:30;;;;;;;;;23.75;18.25;;;;;18.49;51.09;102197.16;5070176;28;45454;-52
2022/05/09 08:08:56;;;;;;;;;18.00;16.00;;;;;18.53;50.59;102201.31;5071404;27;46079;-50
2022/05/09 08:11:23;;;;;;;;;19.50;16.75;;;;;18.54;50.79;102201.19;5072445;28;45295;-49
2022/05/09 08:13:48;;;;;;;;;34.00;20.50;;;;;18.58;50.72;102201.84;5071837;28;45410;-48
2022/05/09 08:16:15;;;;;;;;;19.50;15.50;;;;;18.62;51.19;102193.50;5069611;28;45386;-51
2022/05/09 08:18:41;;;;;;;;;18.75;16.50;;;;;18.67;50.77;102199.41;5069258;28;45403;-53
2022/05/09 08:21:09;;;;;;;;;21.50;19.25;;;;;18.74;50.71;102205.19;5071666;28;45334;-49
2022/05/09 08:23:35;;;;;;;;;16.75;16.25;;;;;18.79;50.68;102203.03;5073503;28;45458;-48
2022/05/09 08:26:03;;;;;;;;;19.00;17.25;;;;;18.87;51.07;102210.50;5070402;28;45256;-49
2022/05/09 08:28:29;;;;;;;;;20.75;18.50;;;;;18.91;50.89;102207.50;5069852;28;45526;-51
2022/05/09 08:30:55;;;;;;;;;18.25;15.25;;;;;18.96;50.53;102212.53;5070875;27;45339;-53
2022/05/09 08:33:26;;;;;;;;;25.50;19.25;;;;;19.05;50.73;102209.19;5069355;28;45505;-52
2022/05/09 08:35:55;;;;;;;;;21.75;20.00;;;;;19.11;50.63;102203.41;5061286;28;45510;-52
2022/05/09 08:38:22;;;;;;;;;20.75;18.75;;;;;19.19;50.83;102206.38;5067903;28;45519;-53
2022/05/09 08:41:07;;;;;;;;;21.25;15.75;;;;;19.29;50.46;102203.06;5060136;28;45466;-50
2022/05/09 08:43:55;;;;;;;;;25.75;15.50;;;;;19.39;50.17;102202.25;5049676;28;45379;-50
2022/05/09 08:47:00;;;;;;;;;21.50;19.50;;;;;19.50;50.42;102201.47;5060796;28;45196;-52
2022/05/09 08:49:51;;;;;;;;;23.75;17.75;;;;;19.61;50.26;102198.91;5060596;28;45343;-53
2022/05/09 08:52:30;;;;;;;;;21.50;20.00;;;;;19.72;50.53;102201.63;5060574;28;45343;-53
2022/05/09 08:54:55;;;;;;;;;24.75;19.25;;;;;19.80;50.08;102201.88;5060307;28;45443;-50
2022/05/09 08:57:37;;;;;;;;;23.50;21.75;;;;;19.86;49.40;102197.91;5061139;28;45224;-53
2022/05/09 09:00:14;;;;;;;;;20.50;17.50;;;;;19.90;49.17;102194.03;5060961;28;46027;-51
2022/05/09 09:03:04;;;;;;;;;21.50;20.75;;;;;19.92;49.40;102192.09;5061328;28;45275;-53
2022/05/09 09:05:35;;;;;;;;;25.25;21.00;;;;;20.01;49.60;102182.53;5061305;28;45452;-53
2022/05/09 09:08:07;;;;;;;;;24.75;19.25;;;;;20.05;49.44;102183.97;5061197;28;45173;-54
2022/05/09 09:11:04;;;;;;;;;23.75;20.50;;;;;20.06;49.32;102193.72;5061005;28;45399;-52
2022/05/09 09:13:55;;;;;;;;;24.50;20.75;;;;;20.13;49.24;102186.06;5052272;28;45526;-51
2022/05/09 09:16:33;;;;;;;;;20.50;18.00;;;;;20.25;49.42;102188.69;5060654;28;45366;-51
2022/05/09 09:19:22;;;;;;;;;26.25;21.75;;;;;20.39;48.97;102176.91;5059235;28;45318;-50
2022/05/09 09:22:16;;;;;;;;;19.75;18.50;;;;;20.50;48.85;102181.44;5060851;28;45615;-50
2022/05/09 09:25:06;;;;;;;;;26.00;20.00;;;;;20.56;48.59;102165.75;5060712;28;45201;-51
2022/05/09 09:27:45;;;;;;;;;25.25;21.25;;;;;20.70;48.50;102169.19;5058503;28;45398;-52
2022/05/09 09:30:15;;;;;;;;;24.25;21.75;;;;;20.81;48.84;102171.84;5047872;28;45446;-53
2022/05/09 09:32:51;;;;;;;;;24.00;21.50;;;;;20.90;48.60;102171.09;5060633;28;46477;-52
2022/05/09 09:35:44;;;;;;;;;20.50;18.00;;;;;20.98;48.26;102168.66;5060276;28;45409;-50
2022/05/09 09:38:31;;;;;;;;;20.00;16.25;;;;;21.11;48.01;102177.41;5060357;28;45326;-52
2022/05/09 09:41:18;;;;;;;;;27.75;22.00;;;;;21.19;48.09;102169.59;5060662;28;45256;-50
2022/05/09 09:43:45;;;;;;;;;20.75;20.00;;;;;21.26;47.56;102169.97;5060516;28;46195;-51
2022/05/09 09:46:11;;;;;;;;;22.00;20.50;;;;;21.33;47.67;102176.56;5060429;28;45259;-52
2022/05/09 09:48:36;;;;;;;;;25.75;21.00;;;;;21.43;47.60;102176.66;5060761;28;45257;-53
2022/05/09 09:51:06;;;;;;;;;28.50;24.00;;;;;21.52;47.37;102173.19;5060605;28;45393;-51
2022/05/09 09:53:37;;;;;;;;;22.00;21.00;;;;;21.59;47.05;102181.59;5059814;28;47208;-50
2022/05/09 09:56:11;;;;;;;;;25.50;21.00;;;;;21.65;47.07;102176.56;5060256;28;45390;-53
2022/05/09 09:58:38;;;;;;;;;23.75;21.00;;;;;21.70;46.66;102166.28;5060503;28;45498;-51
2022/05/09 10:01:06;;;;;;;;;28.25;21.75;;;;;21.79;46.85;102161.13;5060425;28;45585;-51
2022/05/09 10:03:33;;;;;;;;;23.00;19.00;;;;;21.82;46.56;102156.38;5060084;28;45351;-52
2022/05/09 10:05:59;;;;;;;;;24.25;20.25;;;;;21.90;46.50;102155.72;5047104;28;45494;-49
2022/05/09 10:08:34;;;;;;;;;21.25;20.50;;;;;21.96;46.06;102158.75;5059568;28;45371;-50
2022/05/09 10:11:10;;;;;;;;;24.50;21.25;;;;;22.05;45.72;102156.25;5060118;28;45502;-50
2022/05/09 10:13:43;;;;;;;;;32.25;24.25;;;;;22.12;45.70;102154.75;5059733;28;46737;-49
2022/05/09 10:16:31;;;;;;;;;26.50;20.75;;;;;22.22;45.33;102147.63;5059751;28;45248;-49
2022/05/09 10:18:59;;;;;;;;;24.25;20.50;;;;;22.31;44.94;102144.16;5040930;28;45169;-49
2022/05/09 10:24:51;;;;;;;;;21.50;19.50;;;;;22.46;45.26;102145.50;5059697;28;45415;-49
2022/05/09 10:27:28;;;;;;;;;22.50;21.75;;;;;22.54;44.92;102142.16;5040320;28;45381;-50
2022/05/09 10:29:58;;;;;;;;;20.75;17.00;;;;;22.58;44.90;102138.19;5059888;28;45502;-51
2022/05/09 10:32:49;;;;;;;;;25.75;20.75;;;;;22.65;44.84;102139.34;5059937;28;45410;-52
2022/05/09 10:35:23;;;;;;;;;23.00;19.75;;;;;22.73;44.58;102142.22;5044735;28;46139;-52
2022/05/09 10:37:54;;;;;;;;;23.50;18.00;;;;;22.83;44.07;102137.75;5058541;28;45415;-53
2022/05/09 10:40:45;;;;;;;;;16.75;16.75;;;;;22.91;43.96;102138.91;5063215;28;45404;-50
2022/05/09 10:43:13;;;;;;;;;24.25;20.50;;;;;22.99;44.15;102142.63;5062810;28;45544;-50
2022/05/09 10:45:49;;;;;;;;;26.25;19.50;;;;;23.05;43.18;102134.00;5062943;28;46237;-47
2022/05/09 10:48:36;;;;;;;;;20.25;19.50;;;;;23.13;43.71;102136.84;5050069;28;45343;-52
2022/05/09 10:51:07;;;;;;;;;26.50;20.00;;;;;23.21;43.49;102122.69;5062949;28;45342;-52
2022/05/09 10:53:55;;;;;;;;;24.25;22.00;;;;;23.27;43.29;102122.16;5062929;28;45605;-48
2022/05/09 10:56:25;;;;;;;;;25.00;21.75;;;;;23.33;43.18;102126.13;5050031;28;45459;-51
2022/05/09 10:59:00;;;;;;;;;21.25;19.25;;;;;23.40;42.96;102120.06;5062576;28;45210;-53
2022/05/09 11:01:44;;;;;;;;;26.25;25.00;;;;;23.45;42.84;102114.22;5062949;28;45236;-50
2022/05/09 11:04:10;;;;;;;;;19.50;17.25;;;;;23.50;42.36;102116.50;5062719;28;45446;-53
2022/05/09 11:07:11;;;;;;;;;14.50;14.50;;;;;23.54;41.85;102110.72;5062971;28;45448;-54
2022/05/09 11:10:10;;;;;;;;;20.75;15.50;;;;;23.59;41.70;102113.81;5052653;28;45269;-53
2022/05/09 11:13:13;;;;;;;;;22.50;20.25;;;;;23.67;41.60;102113.97;5051295;28;45381;-50
2022/05/09 11:15:39;;;;;;;;;24.75;20.50;;;;;23.74;41.30;102118.78;5049957;28;45314;-51
2022/05/09 11:18:17;;;;;;;;;25.75;17.50;;;;;23.79;41.71;102112.00;5062488;28;46171;-52
2022/05/09 11:20:49;;;;;;;;;21.00;16.00;;;;;23.85;41.16;102113.25;5062828;28;45359;-51
2022/05/09 11:23:48;;;;;;;;;17.25;14.75;;;;;23.91;41.56;102102.75;5062639;28;45452;-51
2022/05/09 11:26:27;;;;;;;;;21.75;20.25;;;;;23.99;40.65;102103.88;5062758;28;45214;-52
2022/05/09 11:28:58;;;;;;;;;21.00;18.00;;;;;24.02;41.01;102095.53;5062674;28;45400;-52
2022/05/09 11:31:34;;;;;;;;;21.50;18.50;;;;;24.05;40.87;102097.91;5062325;28;45240;-54
2022/05/09 11:34:18;;;;;;;;;20.75;18.25;;;;;24.09;40.73;102093.91;5062901;28;45354;-52